sensor_id;sensor_type;location;lat;lon;timestamp;P1;durP1;ratioP1;P2;durP2;ratioP2
19675;SDS011;39539;52.202;9.876;2022-08-25T00:01:30;5.20;;;4.70;;
19675;SDS011;39539;52.202;9.876;2022-08-25T00:04:00;4.90;;;4.43;;
19675;SDS011;39539;52.202;9.876;2022-08-25T00:06:28;4.97;;;4.47;;
19675;SDS011;39539;52.202;9.876;2022-08-25T00:08:55;5.88;;;4.90;;
19675;SDS011;39539;52.202;9.876;2022-08-25T00:11:24;5.72;;;4.40;;
19675;SDS011;39539;52.202;9.876;2022-08-25T00:13:53;5.18;;;4.78;;
19675;SDS011;39539;52.202;9.876;2022-08-25T00:16:21;7.00;;;4.50;;
19675;SDS011;39539;52.202;9.876;2022-08-25T00:18:48;5.50;;;5.00;;
19675;SDS011;39539;52.202;9.876;2022-08-25T00:21:16;5.82;;;4.47;;
19675;SDS011;39539;52.202;9.876;2022-08-25T00:23:41;7.38;;;4.95;;
19675;SDS011;39539;52.202;9.876;2022-08-25T00:26:08;5.28;;;4.88;;
19675;SDS011;39539;52.202;9.876;2022-08-25T00:28:34;6.63;;;5.25;;
19675;SDS011;39539;52.202;9.876;2022-08-25T00:31:01;5.47;;;4.97;;
19675;SDS011;39539;52.202;9.876;2022-08-25T00:33:27;5.30;;;4.80;;
19675;SDS011;39539;52.202;9.876;2022-08-25T00:35:55;5.72;;;5.28;;
19675;SDS011;39539;52.202;9.876;2022-08-25T00:38:20;6.07;;;4.65;;
19675;SDS011;39539;52.202;9.876;2022-08-25T00:40:46;5.80;;;5.28;;
19675;SDS011;39539;52.202;9.876;2022-08-25T00:43:32;6.35;;;5.15;;
19675;SDS011;39539;52.202;9.876;2022-08-25T00:46:14;7.32;;;5.63;;
19675;SDS011;39539;52.202;9.876;2022-08-25T00:48:42;6.45;;;4.95;;
19675;SDS011;39539;52.202;9.876;2022-08-25T00:51:11;4.97;;;4.57;;
19675;SDS011;39539;52.202;9.876;2022-08-25T00:53:40;5.32;;;4.82;;
19675;SDS011;39539;52.202;9.876;2022-08-25T00:56:06;5.90;;;5.40;;
19675;SDS011;39539;52.202;9.876;2022-08-25T00:58:32;5.60;;;4.93;;
19675;SDS011;39539;52.202;9.876;2022-08-25T01:00:59;5.50;;;5.00;;
19675;SDS011;39539;52.202;9.876;2022-08-25T01:03:26;5.55;;;4.78;;
19675;SDS011;39539;52.202;9.876;2022-08-25T01:05:53;5.38;;;4.88;;
19675;SDS011;39539;52.202;9.876;2022-08-25T01:08:20;7.03;;;5.00;;
19675;SDS011;39539;52.202;9.876;2022-08-25T01:10:48;5.38;;;4.88;;
19675;SDS011;39539;52.202;9.876;2022-08-25T01:13:20;5.32;;;4.93;;
19675;SDS011;39539;52.202;9.876;2022-08-25T01:15:47;5.75;;;5.35;;
19675;SDS011;39539;52.202;9.876;2022-08-25T01:18:14;5.97;;;5.50;;
19675;SDS011;39539;52.202;9.876;2022-08-25T01:20:41;6.93;;;5.63;;
19675;SDS011;39539;52.202;9.876;2022-08-25T01:23:07;6.25;;;5.65;;
19675;SDS011;39539;52.202;9.876;2022-08-25T01:28:10;6.03;;;5.53;;
19675;SDS011;39539;52.202;9.876;2022-08-25T01:30:38;5.85;;;5.35;;
19675;SDS011;39539;52.202;9.876;2022-08-25T01:33:05;6.45;;;5.38;;
19675;SDS011;39539;52.202;9.876;2022-08-25T01:35:32;6.50;;;5.90;;
19675;SDS011;39539;52.202;9.876;2022-08-25T01:38:04;5.70;;;5.20;;
19675;SDS011;39539;52.202;9.876;2022-08-25T01:40:32;6.00;;;5.50;;
19675;SDS011;39539;52.202;9.876;2022-08-25T01:45:34;5.93;;;5.45;;
19675;SDS011;39539;52.202;9.876;2022-08-25T01:48:00;6.82;;;5.85;;
19675;SDS011;39539;52.202;9.876;2022-08-25T01:50:26;7.03;;;5.72;;
19675;SDS011;39539;52.202;9.876;2022-08-25T01:55:29;5.93;;;5.53;;
19675;SDS011;39539;52.202;9.876;2022-08-25T01:57:57;6.32;;;5.82;;
19675;SDS011;39539;52.202;9.876;2022-08-25T02:00:44;6.88;;;6.28;;
19675;SDS011;39539;52.202;9.876;2022-08-25T02:03:10;7.38;;;6.32;;
19675;SDS011;39539;52.202;9.876;2022-08-25T02:05:36;6.50;;;5.95;;
19675;SDS011;39539;52.202;9.876;2022-08-25T02:08:01;6.78;;;6.28;;
19675;SDS011;39539;52.202;9.876;2022-08-25T02:10:27;7.35;;;6.75;;
19675;SDS011;39539;52.202;9.876;2022-08-25T02:12:52;7.15;;;6.55;;
19675;SDS011;39539;52.202;9.876;2022-08-25T02:15:18;7.47;;;6.40;;
19675;SDS011;39539;52.202;9.876;2022-08-25T02:17:44;7.05;;;6.45;;
19675;SDS011;39539;52.202;9.876;2022-08-25T02:20:09;7.13;;;6.43;;
19675;SDS011;39539;52.202;9.876;2022-08-25T02:22:35;7.15;;;6.25;;
19675;SDS011;39539;52.202;9.876;2022-08-25T02:25:00;7.13;;;6.43;;
19675;SDS011;39539;52.202;9.876;2022-08-25T02:27:27;6.65;;;6.05;;
19675;SDS011;39539;52.202;9.876;2022-08-25T02:29:53;7.68;;;6.90;;
19675;SDS011;39539;52.202;9.876;2022-08-25T02:32:18;7.90;;;7.10;;
19675;SDS011;39539;52.202;9.876;2022-08-25T02:34:45;7.78;;;7.07;;
19675;SDS011;39539;52.202;9.876;2022-08-25T02:37:14;7.90;;;7.25;;
19675;SDS011;39539;52.202;9.876;2022-08-25T02:39:39;7.35;;;6.75;;
19675;SDS011;39539;52.202;9.876;2022-08-25T02:42:05;8.85;;;7.53;;
19675;SDS011;39539;52.202;9.876;2022-08-25T02:44:30;8.23;;;7.53;;
19675;SDS011;39539;52.202;9.876;2022-08-25T02:46:59;8.05;;;7.35;;
19675;SDS011;39539;52.202;9.876;2022-08-25T02:49:24;8.43;;;7.68;;
19675;SDS011;39539;52.202;9.876;2022-08-25T02:51:49;8.35;;;7.50;;
19675;SDS011;39539;52.202;9.876;2022-08-25T02:54:15;7.85;;;7.05;;
19675;SDS011;39539;52.202;9.876;2022-08-25T02:56:41;8.70;;;7.90;;
19675;SDS011;39539;52.202;9.876;2022-08-25T02:59:07;8.85;;;7.60;;
19675;SDS011;39539;52.202;9.876;2022-08-25T03:01:32;9.30;;;8.50;;
19675;SDS011;39539;52.202;9.876;2022-08-25T03:03:58;9.97;;;8.50;;
19675;SDS011;39539;52.202;9.876;2022-08-25T03:06:24;8.90;;;8.05;;
19675;SDS011;39539;52.202;9.876;2022-08-25T03:08:50;8.70;;;7.90;;
19675;SDS011;39539;52.202;9.876;2022-08-25T03:11:16;8.80;;;8.10;;
19675;SDS011;39539;52.202;9.876;2022-08-25T03:13:42;8.60;;;7.90;;
19675;SDS011;39539;52.202;9.876;2022-08-25T03:16:07;8.38;;;7.68;;
19675;SDS011;39539;52.202;9.876;2022-08-25T03:18:34;8.45;;;7.72;;
19675;SDS011;39539;52.202;9.876;2022-08-25T03:21:01;9.35;;;8.57;;
19675;SDS011;39539;52.202;9.876;2022-08-25T03:23:27;9.88;;;9.07;;
19675;SDS011;39539;52.202;9.876;2022-08-25T03:25:53;10.27;;;9.30;;
19675;SDS011;39539;52.202;9.876;2022-08-25T03:28:37;9.50;;;8.70;;
19675;SDS011;39539;52.202;9.876;2022-08-25T03:31:03;9.10;;;8.50;;
19675;SDS011;39539;52.202;9.876;2022-08-25T03:33:29;10.13;;;8.70;;
19675;SDS011;39539;52.202;9.876;2022-08-25T03:35:54;9.82;;;8.82;;
19675;SDS011;39539;52.202;9.876;2022-08-25T03:38:21;9.70;;;8.70;;
19675;SDS011;39539;52.202;9.876;2022-08-25T03:40:47;9.73;;;8.82;;
19675;SDS011;39539;52.202;9.876;2022-08-25T03:43:14;8.85;;;8.15;;
19675;SDS011;39539;52.202;9.876;2022-08-25T03:45:40;9.52;;;8.73;;
19675;SDS011;39539;52.202;9.876;2022-08-25T03:48:06;9.63;;;8.73;;
19675;SDS011;39539;52.202;9.876;2022-08-25T03:50:32;9.68;;;8.88;;
19675;SDS011;39539;52.202;9.876;2022-08-25T03:52:58;10.38;;;9.45;;
19675;SDS011;39539;52.202;9.876;2022-08-25T03:55:24;10.02;;;9.32;;
19675;SDS011;39539;52.202;9.876;2022-08-25T03:57:51;11.15;;;9.27;;
19675;SDS011;39539;52.202;9.876;2022-08-25T04:00:17;10.82;;;9.90;;
19675;SDS011;39539;52.202;9.876;2022-08-25T04:02:43;10.25;;;9.27;;
19675;SDS011;39539;52.202;9.876;2022-08-25T04:05:09;11.52;;;10.32;;
19675;SDS011;39539;52.202;9.876;2022-08-25T04:07:35;11.82;;;10.30;;
19675;SDS011;39539;52.202;9.876;2022-08-25T04:10:01;11.52;;;10.50;;
19675;SDS011;39539;52.202;9.876;2022-08-25T04:12:28;11.25;;;10.15;;
19675;SDS011;39539;52.202;9.876;2022-08-25T04:14:53;12.82;;;10.82;;
19675;SDS011;39539;52.202;9.876;2022-08-25T04:17:18;11.82;;;10.18;;
19675;SDS011;39539;52.202;9.876;2022-08-25T04:19:44;14.48;;;10.50;;
19675;SDS011;39539;52.202;9.876;2022-08-25T04:22:09;16.88;;;11.10;;
19675;SDS011;39539;52.202;9.876;2022-08-25T04:24:35;12.38;;;10.40;;
19675;SDS011;39539;52.202;9.876;2022-08-25T04:27:00;12.55;;;10.20;;
19675;SDS011;39539;52.202;9.876;2022-08-25T04:29:26;12.53;;;11.23;;
19675;SDS011;39539;52.202;9.876;2022-08-25T04:31:51;15.75;;;10.30;;
19675;SDS011;39539;52.202;9.876;2022-08-25T04:34:19;11.35;;;10.20;;
19675;SDS011;39539;52.202;9.876;2022-08-25T04:36:45;11.45;;;10.30;;
19675;SDS011;39539;52.202;9.876;2022-08-25T04:39:11;11.20;;;10.00;;
19675;SDS011;39539;52.202;9.876;2022-08-25T04:41:37;10.80;;;9.80;;
19675;SDS011;39539;52.202;9.876;2022-08-25T04:44:02;11.68;;;10.02;;
19675;SDS011;39539;52.202;9.876;2022-08-25T04:46:29;9.93;;;9.00;;
19675;SDS011;39539;52.202;9.876;2022-08-25T04:48:56;12.20;;;10.27;;
19675;SDS011;39539;52.202;9.876;2022-08-25T04:51:24;12.23;;;10.13;;
19675;SDS011;39539;52.202;9.876;2022-08-25T04:53:52;10.30;;;9.30;;
19675;SDS011;39539;52.202;9.876;2022-08-25T04:56:19;12.93;;;10.10;;
19675;SDS011;39539;52.202;9.876;2022-08-25T04:58:45;13.50;;;11.35;;
19675;SDS011;39539;52.202;9.876;2022-08-25T05:01:13;14.60;;;11.25;;
19675;SDS011;39539;52.202;9.876;2022-08-25T05:03:41;12.52;;;11.32;;
19675;SDS011;39539;52.202;9.876;2022-08-25T05:06:07;12.27;;;11.27;;
19675;SDS011;39539;52.202;9.876;2022-08-25T05:08:32;12.30;;;11.18;;
19675;SDS011;39539;52.202;9.876;2022-08-25T05:11:03;11.85;;;10.85;;
19675;SDS011;39539;52.202;9.876;2022-08-25T05:13:29;12.45;;;11.30;;
19675;SDS011;39539;52.202;9.876;2022-08-25T05:15:55;12.90;;;11.63;;
19675;SDS011;39539;52.202;9.876;2022-08-25T05:18:24;12.57;;;11.30;;
19675;SDS011;39539;52.202;9.876;2022-08-25T05:20:55;12.45;;;11.13;;
19675;SDS011;39539;52.202;9.876;2022-08-25T05:23:27;13.77;;;12.35;;
19675;SDS011;39539;52.202;9.876;2022-08-25T05:26:04;13.68;;;12.43;;
19675;SDS011;39539;52.202;9.876;2022-08-25T05:28:32;12.55;;;11.52;;
19675;SDS011;39539;52.202;9.876;2022-08-25T05:30:59;13.00;;;11.93;;
19675;SDS011;39539;52.202;9.876;2022-08-25T05:33:26;13.68;;;12.40;;
19675;SDS011;39539;52.202;9.876;2022-08-25T05:35:53;12.35;;;11.45;;
19675;SDS011;39539;52.202;9.876;2022-08-25T05:38:19;14.23;;;13.02;;
19675;SDS011;39539;52.202;9.876;2022-08-25T05:40:45;13.68;;;12.45;;
19675;SDS011;39539;52.202;9.876;2022-08-25T05:43:11;14.18;;;12.95;;
19675;SDS011;39539;52.202;9.876;2022-08-25T05:45:39;14.07;;;12.93;;
19675;SDS011;39539;52.202;9.876;2022-08-25T05:48:05;13.40;;;12.20;;
19675;SDS011;39539;52.202;9.876;2022-08-25T05:50:33;13.40;;;12.27;;
19675;SDS011;39539;52.202;9.876;2022-08-25T05:52:59;14.00;;;12.80;;
19675;SDS011;39539;52.202;9.876;2022-08-25T05:55:25;14.57;;;13.27;;
19675;SDS011;39539;52.202;9.876;2022-08-25T05:57:51;14.38;;;12.55;;
19675;SDS011;39539;52.202;9.876;2022-08-25T06:00:18;13.57;;;12.35;;
19675;SDS011;39539;52.202;9.876;2022-08-25T06:02:43;13.13;;;12.02;;
19675;SDS011;39539;52.202;9.876;2022-08-25T06:05:11;13.50;;;12.27;;
19675;SDS011;39539;52.202;9.876;2022-08-25T06:07:41;13.75;;;12.45;;
19675;SDS011;39539;52.202;9.876;2022-08-25T06:10:08;12.70;;;11.40;;
19675;SDS011;39539;52.202;9.876;2022-08-25T06:12:39;12.30;;;11.20;;
19675;SDS011;39539;52.202;9.876;2022-08-25T06:15:10;12.80;;;11.52;;
19675;SDS011;39539;52.202;9.876;2022-08-25T06:17:38;11.20;;;10.25;;
19675;SDS011;39539;52.202;9.876;2022-08-25T06:20:08;11.88;;;10.70;;
19675;SDS011;39539;52.202;9.876;2022-08-25T06:22:38;10.23;;;9.32;;
19675;SDS011;39539;52.202;9.876;2022-08-25T06:25:07;10.98;;;9.90;;
19675;SDS011;39539;52.202;9.876;2022-08-25T06:27:35;10.73;;;9.70;;
19675;SDS011;39539;52.202;9.876;2022-08-25T06:30:01;10.23;;;9.23;;
19675;SDS011;39539;52.202;9.876;2022-08-25T06:32:32;10.13;;;9.23;;
19675;SDS011;39539;52.202;9.876;2022-08-25T06:35:08;11.48;;;10.30;;
19675;SDS011;39539;52.202;9.876;2022-08-25T06:37:45;10.80;;;9.60;;
19675;SDS011;39539;52.202;9.876;2022-08-25T06:40:13;12.65;;;9.05;;
19675;SDS011;39539;52.202;9.876;2022-08-25T06:42:40;9.95;;;9.00;;
19675;SDS011;39539;52.202;9.876;2022-08-25T06:45:06;10.70;;;9.70;;
19675;SDS011;39539;52.202;9.876;2022-08-25T06:47:32;10.10;;;9.18;;
19675;SDS011;39539;52.202;9.876;2022-08-25T06:49:59;11.38;;;9.43;;
19675;SDS011;39539;52.202;9.876;2022-08-25T06:52:31;9.23;;;8.32;;
19675;SDS011;39539;52.202;9.876;2022-08-25T06:54:57;9.70;;;8.68;;
19675;SDS011;39539;52.202;9.876;2022-08-25T06:57:22;9.67;;;8.70;;
19675;SDS011;39539;52.202;9.876;2022-08-25T06:59:48;8.75;;;8.05;;
19675;SDS011;39539;52.202;9.876;2022-08-25T07:02:14;9.40;;;8.38;;
19675;SDS011;39539;52.202;9.876;2022-08-25T07:04:39;8.88;;;8.18;;
19675;SDS011;39539;52.202;9.876;2022-08-25T07:07:05;9.93;;;9.13;;
19675;SDS011;39539;52.202;9.876;2022-08-25T07:09:32;10.10;;;9.13;;
19675;SDS011;39539;52.202;9.876;2022-08-25T07:11:58;10.85;;;9.48;;
19675;SDS011;39539;52.202;9.876;2022-08-25T07:14:25;11.80;;;9.13;;
19675;SDS011;39539;52.202;9.876;2022-08-25T07:16:50;9.00;;;7.82;;
19675;SDS011;39539;52.202;9.876;2022-08-25T07:19:24;8.35;;;7.55;;
19675;SDS011;39539;52.202;9.876;2022-08-25T07:21:52;9.85;;;8.45;;
19675;SDS011;39539;52.202;9.876;2022-08-25T07:24:18;8.73;;;7.82;;
19675;SDS011;39539;52.202;9.876;2022-08-25T07:26:44;8.68;;;7.95;;
19675;SDS011;39539;52.202;9.876;2022-08-25T07:29:15;9.15;;;8.35;;
19675;SDS011;39539;52.202;9.876;2022-08-25T07:31:53;8.68;;;7.97;;
19675;SDS011;39539;52.202;9.876;2022-08-25T07:34:21;8.93;;;8.20;;
19675;SDS011;39539;52.202;9.876;2022-08-25T07:37:07;9.50;;;8.57;;
19675;SDS011;39539;52.202;9.876;2022-08-25T07:39:32;13.50;;;9.27;;
19675;SDS011;39539;52.202;9.876;2022-08-25T07:41:58;9.73;;;8.88;;
19675;SDS011;39539;52.202;9.876;2022-08-25T07:44:25;10.55;;;8.90;;
19675;SDS011;39539;52.202;9.876;2022-08-25T07:46:52;9.10;;;8.40;;
19675;SDS011;39539;52.202;9.876;2022-08-25T07:49:18;9.45;;;8.60;;
19675;SDS011;39539;52.202;9.876;2022-08-25T07:51:46;8.80;;;8.05;;
19675;SDS011;39539;52.202;9.876;2022-08-25T07:54:11;9.25;;;8.45;;
19675;SDS011;39539;52.202;9.876;2022-08-25T07:56:39;8.93;;;8.02;;
19675;SDS011;39539;52.202;9.876;2022-08-25T07:59:07;7.72;;;7.03;;
19675;SDS011;39539;52.202;9.876;2022-08-25T08:01:33;9.10;;;8.18;;
19675;SDS011;39539;52.202;9.876;2022-08-25T08:03:59;9.18;;;8.38;;
19675;SDS011;39539;52.202;9.876;2022-08-25T08:06:28;10.40;;;7.55;;
19675;SDS011;39539;52.202;9.876;2022-08-25T08:08:55;10.05;;;8.32;;
19675;SDS011;39539;52.202;9.876;2022-08-25T08:11:22;9.90;;;7.97;;
19675;SDS011;39539;52.202;9.876;2022-08-25T08:13:53;9.20;;;8.40;;
19675;SDS011;39539;52.202;9.876;2022-08-25T08:16:21;8.05;;;7.45;;
19675;SDS011;39539;52.202;9.876;2022-08-25T08:18:48;8.40;;;7.65;;
19675;SDS011;39539;52.202;9.876;2022-08-25T08:21:21;8.25;;;7.55;;
19675;SDS011;39539;52.202;9.876;2022-08-25T08:23:49;9.00;;;8.18;;
19675;SDS011;39539;52.202;9.876;2022-08-25T08:26:17;8.55;;;7.75;;
19675;SDS011;39539;52.202;9.876;2022-08-25T08:28:43;9.77;;;8.57;;
19675;SDS011;39539;52.202;9.876;2022-08-25T08:31:14;8.00;;;6.95;;
19675;SDS011;39539;52.202;9.876;2022-08-25T08:33:45;9.13;;;8.05;;
19675;SDS011;39539;52.202;9.876;2022-08-25T08:36:11;8.95;;;8.05;;
19675;SDS011;39539;52.202;9.876;2022-08-25T08:38:38;8.85;;;7.43;;
19675;SDS011;39539;52.202;9.876;2022-08-25T08:41:11;9.35;;;8.40;;
19675;SDS011;39539;52.202;9.876;2022-08-25T08:44:00;9.70;;;7.13;;
19675;SDS011;39539;52.202;9.876;2022-08-25T08:46:38;9.47;;;7.73;;
19675;SDS011;39539;52.202;9.876;2022-08-25T08:49:17;8.50;;;7.60;;
19675;SDS011;39539;52.202;9.876;2022-08-25T08:51:55;7.25;;;6.55;;
19675;SDS011;39539;52.202;9.876;2022-08-25T08:54:25;8.10;;;7.50;;
19675;SDS011;39539;52.202;9.876;2022-08-25T08:57:01;8.63;;;7.15;;
19675;SDS011;39539;52.202;9.876;2022-08-25T08:59:54;11.75;;;7.63;;
19675;SDS011;39539;52.202;9.876;2022-08-25T09:05:31;8.55;;;7.63;;
19675;SDS011;39539;52.202;9.876;2022-08-25T09:08:10;9.55;;;7.72;;
19675;SDS011;39539;52.202;9.876;2022-08-25T09:24:53;9.48;;;8.57;;
19675;SDS011;39539;52.202;9.876;2022-08-25T09:30:26;8.90;;;8.05;;
19675;SDS011;39539;52.202;9.876;2022-08-25T09:32:57;8.70;;;7.90;;
19675;SDS011;39539;52.202;9.876;2022-08-25T09:35:33;8.43;;;7.63;;
19675;SDS011;39539;52.202;9.876;2022-08-25T09:38:05;8.48;;;7.72;;
19675;SDS011;39539;52.202;9.876;2022-08-25T09:40:38;9.02;;;7.90;;
19675;SDS011;39539;52.202;9.876;2022-08-25T09:46:16;9.95;;;7.35;;
19675;SDS011;39539;52.202;9.876;2022-08-25T09:49:10;11.20;;;7.28;;
19675;SDS011;39539;52.202;9.876;2022-08-25T09:51:40;7.75;;;7.10;;
19675;SDS011;39539;52.202;9.876;2022-08-25T09:56:50;8.85;;;8.15;;
19675;SDS011;39539;52.202;9.876;2022-08-25T09:59:22;9.57;;;8.07;;
19675;SDS011;39539;52.202;9.876;2022-08-25T10:01:51;9.73;;;8.30;;
19675;SDS011;39539;52.202;9.876;2022-08-25T10:04:34;8.60;;;7.80;;
19675;SDS011;39539;52.202;9.876;2022-08-25T10:07:05;11.63;;;7.78;;
19675;SDS011;39539;52.202;9.876;2022-08-25T10:09:58;9.38;;;8.48;;
19675;SDS011;39539;52.202;9.876;2022-08-25T10:12:38;9.60;;;8.48;;
19675;SDS011;39539;52.202;9.876;2022-08-25T10:20:41;8.00;;;7.20;;
19675;SDS011;39539;52.202;9.876;2022-08-25T10:26:00;8.43;;;7.70;;
19675;SDS011;39539;52.202;9.876;2022-08-25T10:28:49;10.43;;;8.30;;
19675;SDS011;39539;52.202;9.876;2022-08-25T10:34:16;9.02;;;7.85;;
19675;SDS011;39539;52.202;9.876;2022-08-25T10:42:49;9.02;;;8.23;;
19675;SDS011;39539;52.202;9.876;2022-08-25T10:45:41;10.18;;;9.13;;
19675;SDS011;39539;52.202;9.876;2022-08-25T10:48:24;10.38;;;7.63;;
19675;SDS011;39539;52.202;9.876;2022-08-25T10:56:33;10.13;;;8.45;;
19675;SDS011;39539;52.202;9.876;2022-08-25T10:59:06;10.00;;;8.73;;
19675;SDS011;39539;52.202;9.876;2022-08-25T11:04:22;9.13;;;8.27;;
19675;SDS011;39539;52.202;9.876;2022-08-25T11:07:01;11.38;;;8.57;;
19675;SDS011;39539;52.202;9.876;2022-08-25T11:09:37;10.82;;;8.13;;
19675;SDS011;39539;52.202;9.876;2022-08-25T11:15:06;10.80;;;8.05;;
19675;SDS011;39539;52.202;9.876;2022-08-25T11:20:19;12.55;;;8.00;;
19675;SDS011;39539;52.202;9.876;2022-08-25T11:25:50;8.50;;;7.57;;
19675;SDS011;39539;52.202;9.876;2022-08-25T11:28:19;9.02;;;7.88;;
19675;SDS011;39539;52.202;9.876;2022-08-25T11:30:51;8.40;;;7.55;;
19675;SDS011;39539;52.202;9.876;2022-08-25T11:33:21;8.80;;;7.90;;
19675;SDS011;39539;52.202;9.876;2022-08-25T11:35:59;11.75;;;8.00;;
19675;SDS011;39539;52.202;9.876;2022-08-25T11:49:55;9.80;;;8.27;;
19675;SDS011;39539;52.202;9.876;2022-08-25T12:00:58;8.52;;;7.70;;
19675;SDS011;39539;52.202;9.876;2022-08-25T12:09:34;9.13;;;7.97;;
19675;SDS011;39539;52.202;9.876;2022-08-25T12:30:18;9.38;;;8.32;;
19675;SDS011;39539;52.202;9.876;2022-08-25T12:38:49;9.60;;;8.70;;
19675;SDS011;39539;52.202;9.876;2022-08-25T12:41:22;9.20;;;8.38;;
19675;SDS011;39539;52.202;9.876;2022-08-25T12:43:53;10.57;;;7.80;;
19675;SDS011;39539;52.202;9.876;2022-08-25T12:46:42;9.27;;;8.07;;
19675;SDS011;39539;52.202;9.876;2022-08-25T12:51:57;9.10;;;7.60;;
19675;SDS011;39539;52.202;9.876;2022-08-25T12:57:21;11.38;;;8.40;;
19675;SDS011;39539;52.202;9.876;2022-08-25T13:00:57;8.60;;;7.70;;
19675;SDS011;39539;52.202;9.876;2022-08-25T13:03:18;11.32;;;8.30;;
19675;SDS011;39539;52.202;9.876;2022-08-25T13:09:23;9.18;;;7.25;;
19675;SDS011;39539;52.202;9.876;2022-08-25T13:12:06;8.07;;;7.27;;
19675;SDS011;39539;52.202;9.876;2022-08-25T13:14:37;6.75;;;6.15;;
19675;SDS011;39539;52.202;9.876;2022-08-25T13:17:07;8.27;;;6.13;;
19675;SDS011;39539;52.202;9.876;2022-08-25T13:19:35;9.07;;;6.25;;
19675;SDS011;39539;52.202;9.876;2022-08-25T13:22:14;8.07;;;7.07;;
19675;SDS011;39539;52.202;9.876;2022-08-25T13:24:42;7.30;;;6.60;;
19675;SDS011;39539;52.202;9.876;2022-08-25T13:27:17;9.85;;;6.60;;
19675;SDS011;39539;52.202;9.876;2022-08-25T13:29:53;6.75;;;6.18;;
19675;SDS011;39539;52.202;9.876;2022-08-25T13:32:25;7.47;;;6.25;;
19675;SDS011;39539;52.202;9.876;2022-08-25T13:38:16;6.45;;;5.93;;
19675;SDS011;39539;52.202;9.876;2022-08-25T13:40:44;7.28;;;6.43;;
19675;SDS011;39539;52.202;9.876;2022-08-25T13:43:11;7.88;;;6.30;;
19675;SDS011;39539;52.202;9.876;2022-08-25T13:45:40;8.48;;;6.18;;
19675;SDS011;39539;52.202;9.876;2022-08-25T13:48:10;6.88;;;6.28;;
19675;SDS011;39539;52.202;9.876;2022-08-25T13:50:37;6.95;;;6.15;;
19675;SDS011;39539;52.202;9.876;2022-08-25T13:55:47;8.48;;;6.70;;
19675;SDS011;39539;52.202;9.876;2022-08-25T13:58:34;10.35;;;6.80;;
19675;SDS011;39539;52.202;9.876;2022-08-25T14:03:36;8.68;;;6.28;;
19675;SDS011;39539;52.202;9.876;2022-08-25T14:06:25;7.75;;;7.10;;
19675;SDS011;39539;52.202;9.876;2022-08-25T14:11:32;7.88;;;6.45;;
19675;SDS011;39539;52.202;9.876;2022-08-25T14:14:12;7.45;;;6.50;;
19675;SDS011;39539;52.202;9.876;2022-08-25T14:19:26;9.15;;;6.57;;
19675;SDS011;39539;52.202;9.876;2022-08-25T14:21:52;8.02;;;6.43;;
19675;SDS011;39539;52.202;9.876;2022-08-25T14:24:20;7.15;;;6.45;;
19675;SDS011;39539;52.202;9.876;2022-08-25T14:26:47;12.02;;;6.25;;
19675;SDS011;39539;52.202;9.876;2022-08-25T14:29:14;8.70;;;6.55;;
19675;SDS011;39539;52.202;9.876;2022-08-25T14:31:41;8.40;;;6.30;;
19675;SDS011;39539;52.202;9.876;2022-08-25T14:34:11;6.70;;;6.10;;
19675;SDS011;39539;52.202;9.876;2022-08-25T14:36:41;7.25;;;6.55;;
19675;SDS011;39539;52.202;9.876;2022-08-25T14:39:07;6.90;;;6.30;;
19675;SDS011;39539;52.202;9.876;2022-08-25T14:41:34;9.50;;;6.68;;
19675;SDS011;39539;52.202;9.876;2022-08-25T14:44:02;7.15;;;6.30;;
19675;SDS011;39539;52.202;9.876;2022-08-25T14:46:32;6.82;;;6.22;;
19675;SDS011;39539;52.202;9.876;2022-08-25T14:49:02;6.53;;;5.85;;
19675;SDS011;39539;52.202;9.876;2022-08-25T14:51:30;7.10;;;6.50;;
19675;SDS011;39539;52.202;9.876;2022-08-25T14:53:59;6.55;;;5.88;;
19675;SDS011;39539;52.202;9.876;2022-08-25T14:56:30;7.90;;;6.57;;
19675;SDS011;39539;52.202;9.876;2022-08-25T14:58:57;7.15;;;6.45;;
19675;SDS011;39539;52.202;9.876;2022-08-25T15:01:23;8.82;;;6.20;;
19675;SDS011;39539;52.202;9.876;2022-08-25T15:03:51;6.18;;;5.68;;
19675;SDS011;39539;52.202;9.876;2022-08-25T15:06:19;10.45;;;6.70;;
19675;SDS011;39539;52.202;9.876;2022-08-25T15:08:45;6.97;;;6.28;;
19675;SDS011;39539;52.202;9.876;2022-08-25T15:11:29;7.68;;;5.85;;
19675;SDS011;39539;52.202;9.876;2022-08-25T15:13:56;7.80;;;6.38;;
19675;SDS011;39539;52.202;9.876;2022-08-25T15:16:44;7.30;;;6.13;;
19675;SDS011;39539;52.202;9.876;2022-08-25T15:19:12;6.55;;;5.95;;
19675;SDS011;39539;52.202;9.876;2022-08-25T15:21:40;8.13;;;6.25;;
19675;SDS011;39539;52.202;9.876;2022-08-25T15:24:07;9.77;;;6.30;;
19675;SDS011;39539;52.202;9.876;2022-08-25T15:26:52;6.80;;;6.05;;
19675;SDS011;39539;52.202;9.876;2022-08-25T15:29:20;8.95;;;7.03;;
19675;SDS011;39539;52.202;9.876;2022-08-25T15:31:47;9.10;;;6.25;;
19675;SDS011;39539;52.202;9.876;2022-08-25T15:34:12;8.93;;;6.70;;
19675;SDS011;39539;52.202;9.876;2022-08-25T15:36:38;8.10;;;6.38;;
19675;SDS011;39539;52.202;9.876;2022-08-25T15:39:04;6.82;;;6.20;;
19675;SDS011;39539;52.202;9.876;2022-08-25T15:41:30;8.73;;;7.20;;
19675;SDS011;39539;52.202;9.876;2022-08-25T15:43:56;6.57;;;5.80;;
19675;SDS011;39539;52.202;9.876;2022-08-25T15:46:23;12.45;;;6.45;;
19675;SDS011;39539;52.202;9.876;2022-08-25T15:48:52;9.07;;;6.60;;
19675;SDS011;39539;52.202;9.876;2022-08-25T15:51:18;8.73;;;6.32;;
19675;SDS011;39539;52.202;9.876;2022-08-25T15:53:44;8.15;;;6.45;;
19675;SDS011;39539;52.202;9.876;2022-08-25T15:56:10;6.82;;;6.28;;
19675;SDS011;39539;52.202;9.876;2022-08-25T15:58:41;8.13;;;6.20;;
19675;SDS011;39539;52.202;9.876;2022-08-25T16:01:18;6.53;;;5.95;;
19675;SDS011;39539;52.202;9.876;2022-08-25T16:03:45;7.30;;;6.60;;
19675;SDS011;39539;52.202;9.876;2022-08-25T16:06:11;9.20;;;6.18;;
19675;SDS011;39539;52.202;9.876;2022-08-25T16:08:37;7.78;;;6.28;;
19675;SDS011;39539;52.202;9.876;2022-08-25T16:11:04;6.85;;;6.22;;
19675;SDS011;39539;52.202;9.876;2022-08-25T16:13:30;7.25;;;6.55;;
19675;SDS011;39539;52.202;9.876;2022-08-25T16:15:56;8.40;;;5.75;;
19675;SDS011;39539;52.202;9.876;2022-08-25T16:18:25;6.72;;;6.10;;
19675;SDS011;39539;52.202;9.876;2022-08-25T16:20:51;9.55;;;6.40;;
19675;SDS011;39539;52.202;9.876;2022-08-25T16:23:17;6.90;;;6.20;;
19675;SDS011;39539;52.202;9.876;2022-08-25T16:25:45;7.28;;;5.80;;
19675;SDS011;39539;52.202;9.876;2022-08-25T16:28:12;7.63;;;6.93;;
19675;SDS011;39539;52.202;9.876;2022-08-25T16:30:39;7.72;;;6.60;;
19675;SDS011;39539;52.202;9.876;2022-08-25T16:33:09;7.25;;;6.55;;
19675;SDS011;39539;52.202;9.876;2022-08-25T16:35:36;9.55;;;6.00;;
19675;SDS011;39539;52.202;9.876;2022-08-25T16:38:01;6.95;;;6.25;;
19675;SDS011;39539;52.202;9.876;2022-08-25T16:40:28;8.85;;;6.35;;
19675;SDS011;39539;52.202;9.876;2022-08-25T16:42:55;7.45;;;6.53;;
19675;SDS011;39539;52.202;9.876;2022-08-25T16:45:20;11.98;;;6.95;;
19675;SDS011;39539;52.202;9.876;2022-08-25T16:47:47;7.82;;;6.80;;
19675;SDS011;39539;52.202;9.876;2022-08-25T16:52:58;10.82;;;6.32;;
19675;SDS011;39539;52.202;9.876;2022-08-25T16:55:42;8.40;;;6.50;;
19675;SDS011;39539;52.202;9.876;2022-08-25T16:58:08;7.38;;;6.43;;
19675;SDS011;39539;52.202;9.876;2022-08-25T17:00:34;7.93;;;6.32;;
19675;SDS011;39539;52.202;9.876;2022-08-25T17:03:02;8.52;;;6.00;;
19675;SDS011;39539;52.202;9.876;2022-08-25T17:05:32;10.05;;;6.07;;
19675;SDS011;39539;52.202;9.876;2022-08-25T17:08:06;7.28;;;6.35;;
19675;SDS011;39539;52.202;9.876;2022-08-25T17:10:50;6.75;;;6.05;;
19675;SDS011;39539;52.202;9.876;2022-08-25T17:13:16;8.60;;;6.50;;
19675;SDS011;39539;52.202;9.876;2022-08-25T17:15:42;10.27;;;6.20;;
19675;SDS011;39539;52.202;9.876;2022-08-25T17:18:10;7.00;;;6.20;;